Decoded Metar for UKLL (LVOV in UKRAINE) (IATA:LWO) | Meteo·Mobile Aviation Weather
aviador You're here:

UKLL Decoded Metar

LVOV in UKRAINE
Report Time2018-11-21 01:30:00
UTC Time2018-11-21 01:56:31
Flight Rules ifr IFR
Wind110° at 12 kt
W.Decomp.*RWY 13: 11.0 kt HW 4.7 kt LCW
W.Rank110° ranks 20
Current wind is above 110° avg. (7.0)
Visibility9999 m
Phenomena:N/A
Clouds:Broken 003 Hf
Overcast 007 Hf
Expected CloudBase > 400 ft AGL from Temp-Dew spread
Ceiling700 ft
Temp-1°C (ISA -14)
Dew Point-2°C (93% RH)
AAT-7.6°C
QNH1021 hPa
Density Alt-827 ft
Elevation1,066 ft
Report Wrong Elevation
Raw Report
METAR UKLL 210130Z 11006MPS 9999 OVC007 M01/M02 Q1021 R13/D TEMPO 1100
FZRASN BKN003 BKN015CB=

Extra information for UKLL:More info

Metar Taf Metar & Taf Last 4 Metars F.Rules Stats Wind Profile Meteogram Temp Stats Airport Information Weather charts Add Link Nearby VenuesMetar ALERT Operation Metar Decoded Social comments